Time;durP1;ratioP1;P1;durP2;ratioP2;P2;SDS_P1;SDS_P2;PMS_P1;PMS_P2;Temp;Humidity;BMP_temperature;BMP_pressure;BME280_temperature;BME280_humidity;BME280_pressure;Samples;Min_cycle;Max_cycle;Signal;HPM_P1;HPM_P2
2022/11/10 05:18:54;;;;;;;31.10;19.23;;;;;;;;;;10153355;29;20437;-96
2022/11/10 05:23:57;;;;;;;33.45;20.63;;;;;;;;;;10172897;29;20487;-96
2022/11/10 05:29:06;;;;;;;30.67;19.58;;;;;;;;;;10193526;29;20505;-96
2022/11/10 05:34:18;;;;;;;34.00;20.57;;;;;;;;;;10190289;29;20491;-96
2022/11/10 05:45:01;;;;;;;30.30;18.95;;;;;;;;;;10208323;29;20459;-96
2022/11/10 05:55:38;;;;;;;;;;;;;;;;;;;;;
2022/11/10 06:00:58;;;;;;;28.25;18.58;;;;;;;;;;10267306;23;20426;-93
2022/11/10 06:30:31;;;;;;;28.98;18.38;;;;;;;;;;10244382;29;20436;-96
2022/11/10 06:36:00;;;;;;;29.70;18.80;;;;;;;;;;10222121;29;20497;-92
2022/11/10 06:46:32;;;;;;;28.10;18.03;;;;;;;;;;3239643;23;20446;-94
2022/11/10 06:51:43;;;;;;;28.45;18.17;;;;;;;;;;10147933;29;20428;-96
2022/11/10 06:56:48;;;;;;;28.80;19.17;;;;;;;;;;10168875;29;20425;-93
2022/11/10 07:14:22;;;;;;;27.77;18.27;;;;;;;;;;10128563;29;20445;-96
2022/11/10 07:30:48;;;;;;;29.17;18.23;;;;;;;;;;10041195;29;20482;-96
2022/11/10 07:36:23;;;;;;;28.45;18.73;;;;;;;;;;9933421;29;20490;-96
2022/11/10 07:41:36;;;;;;;25.08;17.92;;;;;;;;;;10127443;29;20421;-96
2022/11/10 08:10:34;;;;;;;27.87;18.23;;;;;;;;;;10220526;29;20782;-95
2022/11/10 08:58:37;;;;;;;;;;;;;;;;;;;;;
2022/11/10 09:34:19;;;;;;;26.92;18.42;;;;;;;;;;12798336;22;20850;-93
2022/11/10 09:39:39;;;;;;;25.73;17.75;;;;;;;;;;13096541;22;20869;-93
2022/11/10 09:45:25;;;;;;;;;;;;;;;;;;;;;
2022/11/10 09:51:00;;;;;;;;;;;;;;;;;;;;;
2022/11/10 10:02:11;;;;;;;24.63;17.13;;;;;;;;;;13176810;22;20438;-93
2022/11/10 10:07:46;;;;;;;25.57;15.63;;;;;;;;;;13141740;22;20369;-92
2022/11/10 10:13:32;;;;;;;24.52;15.70;;;;;;;;;;13134507;22;20357;-90
2022/11/10 10:24:34;;;;;;;22.53;15.37;;;;;;;;;;12916574;23;20896;-92
2022/11/10 10:35:42;;;;;;;22.98;14.90;;;;;;;;;;13082605;22;20354;-92
2022/11/10 10:41:13;;;;;;;22.77;14.73;;;;;;;;;;13178427;22;20685;-93
2022/11/10 10:46:35;;;;;;;;;;;;;;;;;;;;;
2022/11/10 10:51:49;;;;;;;;;;;;;;;;;;;;;
2022/11/10 10:57:20;;;;;;;20.75;14.32;;;;;;;;;;13153510;22;20353;-91
2022/11/10 11:02:26;;;;;;;22.63;14.52;;;;;;;;;;13177156;22;20361;-91
2022/11/10 11:07:28;;;;;;;17.38;12.68;;;;;;;;;;13175785;22;20709;-90
2022/11/10 11:12:31;;;;;;;18.80;12.77;;;;;;;;;;13175728;22;20709;-91
2022/11/10 11:17:36;;;;;;;17.63;11.88;;;;;;;;;;13175663;22;20361;-89
2022/11/10 11:22:56;;;;;;;17.63;12.48;;;;;;;;;;13175722;22;20358;-87
2022/11/10 11:33:43;;;;;;;19.02;13.52;;;;;;;;;;13176558;22;20368;-94
2022/11/10 11:38:58;;;;;;;16.70;11.48;;;;;;;;;;13176616;22;20365;-93
2022/11/10 11:44:30;;;;;;;16.47;10.57;;;;;;;;;;13175702;22;20467;-93
2022/11/10 11:49:56;;;;;;;14.73;10.98;;;;;;;;;;13175743;22;20383;-92
2022/11/10 11:55:21;;;;;;;15.55;11.63;;;;;;;;;;13176505;22;20830;-93
2022/11/10 12:00:24;;;;;;;13.23;10.50;;;;;;;;;;13176889;22;20365;-91
2022/11/10 12:05:38;;;;;;;12.20;9.48;;;;;;;;;;13177601;22;20422;-91
2022/11/10 12:11:01;;;;;;;10.48;8.20;;;;;;;;;;13185126;22;20385;-92
2022/11/10 12:16:36;;;;;;;9.00;7.50;;;;;;;;;;13203596;22;20460;-91
2022/11/10 12:27:22;;;;;;;5.10;4.60;;;;;;;;;;13191899;22;20462;-91
2022/11/10 12:32:31;;;;;;;4.97;4.10;;;;;;;;;;13185460;22;20447;-91
2022/11/10 12:37:41;;;;;;;4.00;3.63;;;;;;;;;;13188398;22;20437;-89
2022/11/10 12:42:51;;;;;;;4.45;3.40;;;;;;;;;;13170597;22;20376;-91
2022/11/10 12:48:03;;;;;;;3.17;2.88;;;;;;;;;;13170246;22;20697;-91
2022/11/10 12:53:27;;;;;;;2.63;2.20;;;;;;;;;;13169179;22;20419;-90
2022/11/10 12:58:30;;;;;;;2.92;2.00;;;;;;;;;;13168691;22;20849;-91
2022/11/10 13:03:36;;;;;;;2.60;2.40;;;;;;;;;;13168720;22;20372;-89
2022/11/10 13:08:45;;;;;;;2.83;1.90;;;;;;;;;;13169100;22;20859;-90
2022/11/10 13:14:01;;;;;;;2.20;1.98;;;;;;;;;;13173847;22;20720;-90
2022/11/10 13:19:05;;;;;;;3.50;2.30;;;;;;;;;;13176706;22;20365;-90
2022/11/10 13:24:25;;;;;;;2.60;2.33;;;;;;;;;;13176226;22;20360;-88
2022/11/10 13:29:33;;;;;;;2.73;2.47;;;;;;;;;;13164471;22;20373;-90
2022/11/10 13:34:38;;;;;;;2.75;2.17;;;;;;;;;;13169108;22;20849;-91
2022/11/10 13:39:45;;;;;;;4.75;2.63;;;;;;;;;;13173380;22;20365;-88
2022/11/10 13:44:49;;;;;;;3.67;2.50;;;;;;;;;;13172599;22;20372;-89
2022/11/10 13:50:09;;;;;;;3.03;2.10;;;;;;;;;;13171009;22;20385;-90
2022/11/10 13:55:21;;;;;;;3.30;1.93;;;;;;;;;;13172334;22;20533;-90
2022/11/10 14:00:29;;;;;;;2.50;2.30;;;;;;;;;;13172373;22;20377;-91
2022/11/10 14:06:12;;;;;;;3.40;1.50;;;;;;;;;;13170089;22;20357;-87
2022/11/10 14:11:27;;;;;;;1.67;1.23;;;;;;;;;;13169145;22;20490;-89
2022/11/10 14:16:41;;;;;;;2.13;1.40;;;;;;;;;;13170309;22;20372;-91
2022/11/10 14:21:50;;;;;;;1.80;1.40;;;;;;;;;;13172996;22;20829;-91
2022/11/10 14:26:54;;;;;;;2.25;1.80;;;;;;;;;;13173417;22;20361;-90
2022/11/10 14:31:57;;;;;;;2.83;2.10;;;;;;;;;;13169430;22;20365;-90
2022/11/10 14:37:05;;;;;;;2.28;1.90;;;;;;;;;;13172454;22;20388;-90
2022/11/10 14:42:07;;;;;;;3.42;2.10;;;;;;;;;;13170891;22;20376;-89
2022/11/10 14:47:30;;;;;;;4.00;2.37;;;;;;;;;;13173067;22;20361;-90
2022/11/10 14:58:31;;;;;;;;;;;;;;;;;;;;;
2022/11/10 15:03:49;;;;;;;1.70;1.60;;;;;;;;;;13171545;22;20395;-90
2022/11/10 15:08:52;;;;;;;3.65;1.60;;;;;;;;;;13171198;22;20891;-91
2022/11/10 15:19:26;;;;;;;2.10;1.88;;;;;;;;;;13149186;22;20353;-84
2022/11/10 15:24:29;;;;;;;2.70;1.90;;;;;;;;;;13164888;22;20465;-83
2022/11/10 15:29:42;;;;;;;3.03;1.77;;;;;;;;;;13167650;22;20416;-89
2022/11/10 15:34:45;;;;;;;3.53;2.50;;;;;;;;;;13170222;22;20357;-89
2022/11/10 15:39:49;;;;;;;4.05;2.88;;;;;;;;;;13157951;22;20426;-89
2022/11/10 15:44:51;;;;;;;3.28;3.03;;;;;;;;;;13156456;22;20373;-89
2022/11/10 15:49:54;;;;;;;4.65;3.00;;;;;;;;;;13160317;22;20381;-88
2022/11/10 15:54:57;;;;;;;7.93;3.28;;;;;;;;;;13166214;22;20876;-89
2022/11/10 16:00:09;;;;;;;3.10;2.75;;;;;;;;;;13162851;22;20935;-91
2022/11/10 16:11:01;;;;;;;5.53;4.00;;;;;;;;;;13139770;22;21069;-90
2022/11/10 16:16:04;;;;;;;5.90;4.93;;;;;;;;;;13166680;22;20955;-90
2022/11/10 16:21:06;;;;;;;5.57;4.87;;;;;;;;;;13181757;22;20434;-89
2022/11/10 16:26:11;;;;;;;37.22;33.88;;;;;;;;;;13172949;22;20385;-91
2022/11/10 16:31:15;;;;;;;7.93;6.10;;;;;;;;;;13170193;22;20909;-91
2022/11/10 16:36:23;;;;;;;8.18;6.53;;;;;;;;;;13177394;22;20470;-88
2022/11/10 16:41:30;;;;;;;11.15;7.90;;;;;;;;;;13179926;22;20369;-90
2022/11/10 16:46:43;;;;;;;6.35;5.50;;;;;;;;;;13161648;22;20374;-89
2022/11/10 16:51:45;;;;;;;12.20;9.57;;;;;;;;;;13162551;22;20397;-88
2022/11/10 16:56:48;;;;;;;7.57;5.30;;;;;;;;;;13159373;22;20716;-88
2022/11/10 17:01:53;;;;;;;18.90;14.30;;;;;;;;;;13157231;22;20888;-89
2022/11/10 17:06:55;;;;;;;7.75;6.95;;;;;;;;;;13159932;22;20627;-89
2022/11/10 17:11:58;;;;;;;15.73;12.10;;;;;;;;;;13159959;22;20392;-90
2022/11/10 17:17:00;;;;;;;11.02;9.50;;;;;;;;;;13159779;22;20373;-88
2022/11/10 17:22:02;;;;;;;17.77;12.10;;;;;;;;;;13163038;22;20377;-90
2022/11/10 17:27:05;;;;;;;11.13;7.40;;;;;;;;;;13160964;22;20381;-89
2022/11/10 17:32:07;;;;;;;11.85;9.60;;;;;;;;;;13160406;22;20404;-89
2022/11/10 17:37:14;;;;;;;9.77;8.00;;;;;;;;;;13159829;22;20373;-91
2022/11/10 17:42:19;;;;;;;11.48;9.10;;;;;;;;;;13160781;22;20373;-90
2022/11/10 17:47:21;;;;;;;12.05;9.85;;;;;;;;;;13158723;22;20378;-89
2022/11/10 17:52:29;;;;;;;14.27;11.32;;;;;;;;;;13161471;22;20420;-89
2022/11/10 17:57:33;;;;;;;14.60;10.75;;;;;;;;;;13162689;22;20376;-88
2022/11/10 18:02:36;;;;;;;12.60;9.40;;;;;;;;;;13161763;22;20441;-89
2022/11/10 18:07:38;;;;;;;13.85;10.45;;;;;;;;;;13161666;22;20384;-91
2022/11/10 18:13:06;;;;;;;13.15;10.75;;;;;;;;;;13166592;22;20378;-92
2022/11/10 18:18:13;;;;;;;13.50;11.70;;;;;;;;;;13165545;22;20430;-93
2022/11/10 18:23:17;;;;;;;15.37;12.90;;;;;;;;;;12952099;22;20900;-95
2022/11/10 18:28:20;;;;;;;36.55;24.50;;;;;;;;;;12977045;22;20378;-88
2022/11/10 18:33:22;;;;;;;21.13;16.00;;;;;;;;;;12972187;22;20818;-87
2022/11/10 18:38:24;;;;;;;18.45;13.20;;;;;;;;;;12969694;22;20942;-89
2022/11/10 18:43:27;;;;;;;17.53;14.07;;;;;;;;;;12970878;22;20669;-89
2022/11/10 18:48:29;;;;;;;17.33;14.87;;;;;;;;;;12969250;22;20448;-89
2022/11/10 18:53:31;;;;;;;19.77;17.05;;;;;;;;;;12966656;22;20382;-87
2022/11/10 18:58:34;;;;;;;14.87;13.30;;;;;;;;;;12968198;22;20461;-88
2022/11/10 19:03:37;;;;;;;14.55;12.98;;;;;;;;;;12966891;22;20481;-87
2022/11/10 19:08:40;;;;;;;15.83;13.60;;;;;;;;;;12965602;22;20900;-89
2022/11/10 19:13:44;;;;;;;16.38;13.52;;;;;;;;;;12966138;22;20473;-89
2022/11/10 19:18:46;;;;;;;17.98;13.10;;;;;;;;;;12961779;22;20401;-88
2022/11/10 19:23:49;;;;;;;14.50;11.63;;;;;;;;;;12966760;22;20875;-88
2022/11/10 19:28:54;;;;;;;15.63;12.63;;;;;;;;;;12966998;22;20386;-89
2022/11/10 19:33:57;;;;;;;16.83;12.98;;;;;;;;;;12967231;22;20711;-87
2022/11/10 19:38:59;;;;;;;23.92;16.35;;;;;;;;;;12968851;22;20381;-89
2022/11/10 19:44:03;;;;;;;25.45;19.58;;;;;;;;;;12969351;22;20477;-89
2022/11/10 19:49:05;;;;;;;22.25;18.73;;;;;;;;;;12967217;22;20410;-87
2022/11/10 19:54:07;;;;;;;21.48;17.25;;;;;;;;;;12969145;22;20441;-87
2022/11/10 19:59:13;;;;;;;21.93;17.50;;;;;;;;;;12966631;22;20680;-86
2022/11/10 20:04:15;;;;;;;21.55;17.00;;;;;;;;;;12997899;22;20358;-85
2022/11/10 20:09:17;;;;;;;22.50;17.05;;;;;;;;;;12978622;22;21251;-86
2022/11/10 20:14:20;;;;;;;24.80;19.00;;;;;;;;;;12960387;22;21059;-87
2022/11/10 20:19:22;;;;;;;23.20;18.65;;;;;;;;;;12960332;22;20406;-85
2022/11/10 20:24:24;;;;;;;29.00;20.00;;;;;;;;;;12959316;22;20377;-87
2022/11/10 20:29:28;;;;;;;27.52;20.25;;;;;;;;;;12959379;22;20941;-87
2022/11/10 20:34:30;;;;;;;28.87;21.00;;;;;;;;;;12958333;22;21024;-85
2022/11/10 20:39:32;;;;;;;24.50;19.50;;;;;;;;;;12957760;22;20370;-86
2022/11/10 20:44:36;;;;;;;28.15;19.98;;;;;;;;;;12958003;22;20374;-86
2022/11/10 20:49:38;;;;;;;28.58;21.15;;;;;;;;;;12956350;22;20468;-86
2022/11/10 20:54:40;;;;;;;28.77;19.55;;;;;;;;;;12959123;22;20374;-88
2022/11/10 20:59:43;;;;;;;25.53;19.93;;;;;;;;;;12959691;22;20374;-89
2022/11/10 21:04:48;;;;;;;27.40;20.23;;;;;;;;;;12955923;22;20892;-87
2022/11/10 21:09:50;;;;;;;23.60;19.15;;;;;;;;;;12951664;22;20755;-88
2022/11/10 21:14:53;;;;;;;24.50;17.58;;;;;;;;;;12952009;22;20367;-86
2022/11/10 21:19:55;;;;;;;22.10;16.97;;;;;;;;;;12951878;22;20706;-87
2022/11/10 21:24:57;;;;;;;19.33;15.38;;;;;;;;;;12953267;22;20432;-86
2022/11/10 21:30:01;;;;;;;18.83;15.20;;;;;;;;;;12952553;22;20512;-87
2022/11/10 21:35:03;;;;;;;17.83;14.50;;;;;;;;;;12956322;22;20362;-85
2022/11/10 21:40:06;;;;;;;17.92;15.05;;;;;;;;;;12958761;22;20401;-88
2022/11/10 21:45:10;;;;;;;18.87;15.30;;;;;;;;;;12956944;22;20441;-87
2022/11/10 21:50:13;;;;;;;21.57;14.87;;;;;;;;;;12960317;22;20929;-85
2022/11/10 21:55:14;;;;;;;17.80;14.50;;;;;;;;;;12962283;22;20515;-85
2022/11/10 22:00:18;;;;;;;18.15;13.77;;;;;;;;;;12960953;22;20370;-87
2022/11/10 22:05:20;;;;;;;19.73;14.07;;;;;;;;;;12961179;22;20862;-85
2022/11/10 22:21:02;;;;;;;19.08;13.93;;;;;;;;;;12967698;22;20367;-87
2022/11/10 22:26:03;;;;;;;18.03;14.63;;;;;;;;;;12966543;22;20496;-88
2022/11/10 22:31:08;;;;;;;16.00;13.15;;;;;;;;;;12966653;22;20374;-87
2022/11/10 22:36:15;;;;;;;15.20;12.57;;;;;;;;;;12965614;22;20461;-86
2022/11/10 22:46:35;;;;;;;16.48;12.80;;;;;;;;;;12898878;22;20431;-87
2022/11/10 22:51:38;;;;;;;14.25;11.70;;;;;;;;;;12968509;22;20559;-88
2022/11/10 22:56:42;;;;;;;16.77;11.90;;;;;;;;;;12966331;22;20402;-86
2022/11/10 23:01:45;;;;;;;16.00;12.03;;;;;;;;;;12965441;22;20857;-86
2022/11/10 23:06:47;;;;;;;15.63;11.70;;;;;;;;;;12966067;22;20366;-86
2022/11/10 23:11:49;;;;;;;15.60;11.93;;;;;;;;;;12966607;22;20876;-86
